Time;durP1;ratioP1;P1;durP2;ratioP2;P2;SDS_P1;SDS_P2;PMS_P1;PMS_P2;Temp;Humidity;BMP_temperature;BMP_pressure;BME280_temperature;BME280_humidity;BME280_pressure;Samples;Min_cycle;Max_cycle;Signal;HPM_P1;HPM_P2
2023/01/20 00:00:22;;;;;;;28.10;16.58;;;;;;;;;;5015945;28;20382;-67
2023/01/20 00:02:47;;;;;;;30.80;16.63;;;;;;;;;;5015852;28;20060;-65
2023/01/20 00:05:13;;;;;;;30.63;16.95;;;;;;;;;;5033525;28;20140;-67
2023/01/20 00:07:38;;;;;;;27.38;15.60;;;;;;;;;;5033305;28;20112;-66
2023/01/20 00:10:04;;;;;;;31.45;16.73;;;;;;;;;;5015723;28;20393;-66
2023/01/20 00:12:30;;;;;;;32.33;18.92;;;;;;;;;;5015566;28;20061;-66
2023/01/20 00:14:56;;;;;;;37.15;20.45;;;;;;;;;;5033433;28;20362;-66
2023/01/20 00:17:22;;;;;;;30.23;17.75;;;;;;;;;;5015484;28;20120;-66
2023/01/20 00:19:48;;;;;;;31.25;16.48;;;;;;;;;;5015570;28;20056;-65
2023/01/20 00:22:15;;;;;;;27.48;15.85;;;;;;;;;;5015385;28;20370;-65
2023/01/20 00:24:41;;;;;;;26.30;16.15;;;;;;;;;;5033321;28;20513;-65
2023/01/20 00:27:09;;;;;;;31.42;16.08;;;;;;;;;;5033501;28;20018;-65
2023/01/20 00:29:35;;;;;;;27.25;16.20;;;;;;;;;;5033080;28;20060;-65
2023/01/20 00:32:01;;;;;;;26.88;16.15;;;;;;;;;;4999065;28;20401;-65
2023/01/20 00:34:27;;;;;;;26.80;16.17;;;;;;;;;;4999051;28;20052;-65
2023/01/20 00:36:53;;;;;;;25.25;15.25;;;;;;;;;;5032777;28;20038;-65
2023/01/20 00:39:20;;;;;;;26.73;15.77;;;;;;;;;;5033186;28;20025;-65
2023/01/20 00:41:45;;;;;;;26.42;15.40;;;;;;;;;;5032947;28;20163;-64
2023/01/20 00:44:11;;;;;;;29.00;15.25;;;;;;;;;;5014472;28;20025;-65
2023/01/20 00:46:37;;;;;;;23.30;14.32;;;;;;;;;;5033092;28;20025;-64
2023/01/20 00:49:03;;;;;;;26.25;14.52;;;;;;;;;;5015367;28;20501;-64
2023/01/20 00:51:28;;;;;;;24.75;15.05;;;;;;;;;;5033143;28;20032;-64
2023/01/20 00:53:55;;;;;;;25.58;14.93;;;;;;;;;;5033222;28;20044;-66
2023/01/20 00:56:21;;;;;;;24.55;14.68;;;;;;;;;;5032615;28;20075;-66
2023/01/20 00:58:47;;;;;;;25.27;15.02;;;;;;;;;;5015073;28;20440;-66
2023/01/20 01:01:13;;;;;;;25.98;15.60;;;;;;;;;;5016415;28;20531;-66
2023/01/20 01:03:40;;;;;;;24.83;14.45;;;;;;;;;;5019091;28;20074;-66
2023/01/20 01:06:06;;;;;;;24.33;14.52;;;;;;;;;;5018789;28;20014;-66
2023/01/20 01:08:32;;;;;;;25.85;14.80;;;;;;;;;;5036280;28;20112;-66
2023/01/20 01:10:57;;;;;;;30.27;16.98;;;;;;;;;;5018564;28;20056;-65
2023/01/20 01:13:24;;;;;;;31.75;17.80;;;;;;;;;;5036715;28;20059;-65
2023/01/20 01:15:51;;;;;;;33.08;18.60;;;;;;;;;;5036328;28;20029;-65
2023/01/20 01:18:17;;;;;;;30.88;18.13;;;;;;;;;;5001787;28;20460;-65
2023/01/20 01:20:43;;;;;;;30.67;18.33;;;;;;;;;;5036199;28;20036;-65
2023/01/20 01:23:09;;;;;;;29.35;17.52;;;;;;;;;;4985857;28;20116;-66
2023/01/20 01:25:36;;;;;;;30.83;17.98;;;;;;;;;;5036148;28;20057;-66
2023/01/20 01:28:01;;;;;;;28.55;16.13;;;;;;;;;;5035933;28;20335;-66
2023/01/20 01:30:26;;;;;;;25.65;16.02;;;;;;;;;;5035587;28;20096;-66
2023/01/20 01:32:52;;;;;;;27.27;15.48;;;;;;;;;;5035617;28;20381;-66
2023/01/20 01:35:17;;;;;;;25.55;16.55;;;;;;;;;;5018075;28;20033;-66
2023/01/20 01:37:44;;;;;;;30.00;16.85;;;;;;;;;;5035823;28;20446;-66
2023/01/20 01:40:10;;;;;;;30.55;16.77;;;;;;;;;;5035676;28;20057;-66
2023/01/20 01:42:36;;;;;;;25.88;14.82;;;;;;;;;;5018237;28;20075;-64
2023/01/20 01:45:10;;;;;;;25.75;14.82;;;;;;;;;;5017915;28;20025;-66
2023/01/20 01:47:38;;;;;;;24.38;15.00;;;;;;;;;;5035874;28;20045;-66
2023/01/20 01:50:04;;;;;;;26.17;15.25;;;;;;;;;;5035810;28;20112;-66
2023/01/20 01:52:30;;;;;;;27.63;15.73;;;;;;;;;;5017916;28;20060;-66
2023/01/20 01:54:57;;;;;;;22.88;14.43;;;;;;;;;;5018316;28;20091;-64
2023/01/20 01:57:23;;;;;;;23.15;14.98;;;;;;;;;;5017648;28;20116;-67
2023/01/20 01:59:50;;;;;;;27.77;15.63;;;;;;;;;;5017536;28;20029;-70
2023/01/20 02:02:16;;;;;;;30.63;16.80;;;;;;;;;;5017733;28;20095;-70
2023/01/20 02:04:41;;;;;;;29.73;17.17;;;;;;;;;;5001012;28;20022;-69
2023/01/20 02:07:14;;;;;;;37.30;19.58;;;;;;;;;;5017878;28;20029;-70
2023/01/20 02:09:40;;;;;;;29.27;16.95;;;;;;;;;;5017966;28;20036;-65
2023/01/20 02:12:09;;;;;;;28.95;16.38;;;;;;;;;;5018607;28;20025;-64
2023/01/20 02:14:37;;;;;;;29.13;16.70;;;;;;;;;;5018466;28;20120;-64
2023/01/20 02:17:30;;;;;;;29.55;17.63;;;;;;;;;;5034835;28;20033;-65
2023/01/20 02:19:58;;;;;;;33.58;17.65;;;;;;;;;;4995317;28;20026;-65
2023/01/20 02:22:29;;;;;;;31.33;17.65;;;;;;;;;;5017195;28;20030;-65
2023/01/20 02:25:10;;;;;;;39.42;18.95;;;;;;;;;;5035424;28;20034;-68
2023/01/20 02:27:42;;;;;;;33.55;18.98;;;;;;;;;;5034854;28;20075;-68
2023/01/20 02:30:14;;;;;;;33.15;17.95;;;;;;;;;;5013698;28;20096;-69
2023/01/20 02:32:50;;;;;;;29.30;17.40;;;;;;;;;;5014884;28;20048;-68
2023/01/20 02:35:25;;;;;;;34.05;18.48;;;;;;;;;;5013801;28;20061;-67
2023/01/20 02:38:07;;;;;;;34.38;19.20;;;;;;;;;;5015218;28;20038;-68
2023/01/20 02:40:45;;;;;;;32.17;18.23;;;;;;;;;;5013607;28;20026;-68
2023/01/20 02:43:18;;;;;;;31.83;17.65;;;;;;;;;;4997854;28;20066;-65
2023/01/20 02:45:47;;;;;;;30.42;17.25;;;;;;;;;;5014937;28;20022;-65
2023/01/20 02:48:16;;;;;;;31.92;17.75;;;;;;;;;;5013448;28;20536;-65
2023/01/20 02:51:06;;;;;;;31.50;17.40;;;;;;;;;;5014670;28;20121;-65
2023/01/20 02:53:38;;;;;;;30.30;16.67;;;;;;;;;;5009482;28;20042;-65
2023/01/20 02:56:05;;;;;;;32.03;17.65;;;;;;;;;;5013695;28;20115;-65
2023/01/20 02:58:51;;;;;;;29.85;17.73;;;;;;;;;;5014561;28;20109;-65
2023/01/20 03:01:47;;;;;;;32.63;18.40;;;;;;;;;;5012657;28;20030;-65
2023/01/20 03:04:18;;;;;;;31.13;17.83;;;;;;;;;;5002195;28;20041;-65
2023/01/20 03:06:49;;;;;;;32.83;18.13;;;;;;;;;;5013209;28;20030;-65
2023/01/20 03:09:17;;;;;;;34.35;18.35;;;;;;;;;;5013118;28;20056;-65
2023/01/20 03:11:47;;;;;;;30.83;17.67;;;;;;;;;;5013483;28;20478;-65
2023/01/20 03:14:14;;;;;;;34.42;18.17;;;;;;;;;;5013119;28;20096;-63
2023/01/20 03:16:41;;;;;;;34.03;18.25;;;;;;;;;;5013096;28;20121;-63
2023/01/20 03:19:10;;;;;;;34.08;17.80;;;;;;;;;;5014382;28;20109;-63
2023/01/20 03:21:38;;;;;;;37.30;18.85;;;;;;;;;;5012899;28;20030;-63
2023/01/20 03:24:05;;;;;;;36.08;19.27;;;;;;;;;;5012388;28;20088;-65
2023/01/20 03:26:30;;;;;;;34.88;19.50;;;;;;;;;;5013986;28;20117;-65
2023/01/20 03:28:56;;;;;;;35.47;19.17;;;;;;;;;;4996220;28;20128;-64
2023/01/20 03:31:31;;;;;;;33.80;19.25;;;;;;;;;;4996133;28;20122;-65
2023/01/20 03:34:00;;;;;;;30.95;17.38;;;;;;;;;;5014175;28;20030;-66
2023/01/20 03:36:30;;;;;;;32.92;18.50;;;;;;;;;;5014163;28;20474;-66
2023/01/20 03:38:57;;;;;;;48.53;23.50;;;;;;;;;;5013117;28;20481;-65
2023/01/20 03:41:39;;;;;;;48.40;25.08;;;;;;;;;;5014349;28;20037;-65
2023/01/20 03:44:09;;;;;;;35.63;19.67;;;;;;;;;;5014210;28;20029;-62
2023/01/20 03:46:44;;;;;;;34.70;18.67;;;;;;;;;;5012843;28;20026;-62
2023/01/20 03:49:16;;;;;;;37.00;19.25;;;;;;;;;;5012652;28;20030;-62
2023/01/20 03:51:46;;;;;;;34.38;19.30;;;;;;;;;;5013702;28;20030;-62
2023/01/20 03:54:14;;;;;;;34.45;18.88;;;;;;;;;;4996215;28;20418;-62
2023/01/20 03:56:47;;;;;;;30.42;17.85;;;;;;;;;;4995861;28;20470;-62
2023/01/20 03:59:13;;;;;;;30.95;17.70;;;;;;;;;;5012556;28;20030;-64
2023/01/20 04:01:40;;;;;;;33.25;18.15;;;;;;;;;;5013788;28;20565;-65
2023/01/20 04:04:08;;;;;;;31.73;17.58;;;;;;;;;;4996274;28;20022;-65
2023/01/20 04:06:37;;;;;;;31.25;17.30;;;;;;;;;;5012687;28;20026;-67
2023/01/20 04:09:28;;;;;;;29.70;17.15;;;;;;;;;;4995906;28;20025;-65
2023/01/20 04:11:55;;;;;;;28.30;16.95;;;;;;;;;;4973772;28;20073;-67
2023/01/20 04:14:20;;;;;;;29.27;17.63;;;;;;;;;;5012315;28;20041;-68
2023/01/20 04:16:54;;;;;;;30.52;16.92;;;;;;;;;;5013383;28;20042;-68
2023/01/20 04:19:19;;;;;;;30.17;17.73;;;;;;;;;;5012074;28;20033;-67
2023/01/20 04:21:47;;;;;;;31.63;17.85;;;;;;;;;;5013291;28;20032;-68
2023/01/20 04:24:17;;;;;;;28.85;17.08;;;;;;;;;;5012861;28;20025;-68
2023/01/20 04:26:43;;;;;;;30.27;17.23;;;;;;;;;;5013480;28;20099;-66
2023/01/20 04:29:08;;;;;;;29.00;17.85;;;;;;;;;;4995474;28;20481;-65
2023/01/20 04:31:35;;;;;;;29.38;17.35;;;;;;;;;;5012579;28;20101;-65
2023/01/20 04:34:00;;;;;;;26.70;16.92;;;;;;;;;;4995870;28;20125;-65
2023/01/20 04:36:26;;;;;;;27.88;16.75;;;;;;;;;;4997519;28;20044;-64
2023/01/20 04:38:54;;;;;;;31.58;18.42;;;;;;;;;;5015748;28;20030;-64
2023/01/20 04:41:20;;;;;;;26.48;16.70;;;;;;;;;;5017008;28;20029;-65
2023/01/20 04:43:46;;;;;;;27.38;17.33;;;;;;;;;;4999178;28;20477;-65
2023/01/20 04:46:14;;;;;;;27.98;17.38;;;;;;;;;;5016954;28;20435;-65
2023/01/20 04:48:45;;;;;;;19.08;13.52;;;;;;;;;;5015819;28;20038;-66
2023/01/20 04:51:10;;;;;;;25.88;16.58;;;;;;;;;;5016701;28;20113;-65
2023/01/20 04:53:36;;;;;;;28.13;16.73;;;;;;;;;;5016963;28;20052;-66
2023/01/20 04:56:04;;;;;;;31.25;18.65;;;;;;;;;;5016920;28;20022;-65
2023/01/20 04:58:29;;;;;;;26.13;16.25;;;;;;;;;;5016705;28;20030;-65
2023/01/20 05:00:54;;;;;;;27.23;16.70;;;;;;;;;;5015328;28;20016;-65
2023/01/20 05:03:21;;;;;;;31.40;17.80;;;;;;;;;;5009917;28;20134;-65
2023/01/20 05:05:53;;;;;;;31.73;17.80;;;;;;;;;;4996355;28;20018;-64
2023/01/20 05:08:18;;;;;;;;;;;;;;;;;;4996750;28;20065;-64
2023/01/20 05:10:43;;;;;;;30.37;17.17;;;;;;;;;;4996099;28;20313;-64
2023/01/20 05:13:09;;;;;;;28.63;17.30;;;;;;;;;;4996279;28;20121;-65
2023/01/20 05:15:34;;;;;;;27.70;17.52;;;;;;;;;;4996121;28;20079;-65
2023/01/20 05:18:00;;;;;;;23.27;15.25;;;;;;;;;;4994623;28;20065;-65
2023/01/20 05:20:25;;;;;;;22.98;15.73;;;;;;;;;;4996444;28;20026;-63
2023/01/20 05:22:50;;;;;;;25.25;15.73;;;;;;;;;;4996396;28;20030;-64
2023/01/20 05:25:16;;;;;;;25.85;16.17;;;;;;;;;;4995115;28;20068;-64
2023/01/20 05:27:41;;;;;;;27.20;16.40;;;;;;;;;;4995251;28;20117;-64
2023/01/20 05:30:07;;;;;;;27.65;17.23;;;;;;;;;;5009712;28;20481;-64
2023/01/20 05:32:32;;;;;;;29.05;17.35;;;;;;;;;;5014531;28;20450;-64
2023/01/20 05:34:57;;;;;;;30.33;17.85;;;;;;;;;;5014766;28;20030;-64
2023/01/20 05:37:24;;;;;;;30.67;18.33;;;;;;;;;;5015491;28;20041;-64
2023/01/20 05:39:50;;;;;;;30.95;17.75;;;;;;;;;;5015731;28;20030;-64
2023/01/20 05:42:17;;;;;;;26.02;17.15;;;;;;;;;;5016013;28;20374;-64
2023/01/20 05:44:42;;;;;;;26.15;16.85;;;;;;;;;;5015557;28;20026;-64
2023/01/20 05:47:08;;;;;;;26.75;16.70;;;;;;;;;;5003582;28;20021;-65
2023/01/20 05:49:33;;;;;;;27.88;16.52;;;;;;;;;;4995508;28;20386;-65
2023/01/20 05:52:00;;;;;;;28.45;17.80;;;;;;;;;;4978324;28;20037;-65
2023/01/20 05:54:25;;;;;;;28.40;17.50;;;;;;;;;;4994531;28;20369;-65
2023/01/20 05:56:51;;;;;;;27.15;18.27;;;;;;;;;;4995623;28;20121;-65
2023/01/20 05:59:16;;;;;;;25.55;17.50;;;;;;;;;;4995509;28;20072;-65
2023/01/20 06:01:43;;;;;;;27.15;16.77;;;;;;;;;;4995972;28;20033;-65
2023/01/20 06:04:08;;;;;;;24.63;16.42;;;;;;;;;;4994324;28;20113;-65
2023/01/20 06:06:33;;;;;;;28.13;17.23;;;;;;;;;;4995709;28;20129;-65
2023/01/20 06:08:59;;;;;;;25.85;16.20;;;;;;;;;;4995717;28;20022;-65
2023/01/20 06:11:25;;;;;;;24.08;15.15;;;;;;;;;;4994562;28;20541;-65
2023/01/20 06:13:51;;;;;;;22.02;15.65;;;;;;;;;;4995216;28;20066;-65
2023/01/20 06:16:17;;;;;;;26.27;16.92;;;;;;;;;;4995714;28;20068;-66
2023/01/20 06:18:42;;;;;;;94.68;54.63;;;;;;;;;;4995447;28;20470;-64
2023/01/20 06:21:08;;;;;;;59.35;36.80;;;;;;;;;;4995723;28;20033;-65
2023/01/20 06:23:33;;;;;;;31.63;20.75;;;;;;;;;;4994221;28;20383;-65
2023/01/20 06:25:59;;;;;;;24.02;15.32;;;;;;;;;;4995492;28;20390;-65
2023/01/20 06:28:25;;;;;;;23.17;15.20;;;;;;;;;;4995804;28;20066;-65
2023/01/20 06:30:57;;;;;;;23.42;14.77;;;;;;;;;;4997998;28;20041;-68
2023/01/20 06:33:22;;;;;;;22.65;14.32;;;;;;;;;;5015217;28;20037;-68
2023/01/20 06:35:48;;;;;;;20.80;14.63;;;;;;;;;;5015111;28;20193;-68
2023/01/20 06:38:13;;;;;;;23.35;15.35;;;;;;;;;;4997527;28;20056;-67
2023/01/20 06:40:39;;;;;;;23.52;15.55;;;;;;;;;;5014931;28;20029;-67
2023/01/20 06:43:04;;;;;;;22.25;15.40;;;;;;;;;;4996237;28;20548;-68
2023/01/20 06:45:29;;;;;;;25.20;15.80;;;;;;;;;;4996289;28;20567;-65
2023/01/20 06:47:55;;;;;;;24.58;15.48;;;;;;;;;;4996618;28;20033;-65
2023/01/20 06:50:20;;;;;;;22.60;14.77;;;;;;;;;;5013389;28;20509;-65
2023/01/20 06:52:48;;;;;;;23.95;16.45;;;;;;;;;;5014095;28;20029;-65
2023/01/20 06:55:15;;;;;;;20.67;14.65;;;;;;;;;;4996272;28;20034;-67
2023/01/20 06:57:41;;;;;;;20.45;14.05;;;;;;;;;;5013754;28;20393;-67
2023/01/20 07:00:07;;;;;;;19.95;13.88;;;;;;;;;;5013883;28;20118;-67
2023/01/20 07:02:32;;;;;;;19.38;14.70;;;;;;;;;;5014389;28;20117;-67
2023/01/20 07:04:58;;;;;;;26.20;15.57;;;;;;;;;;5014404;28;20053;-65
2023/01/20 07:07:27;;;;;;;27.00;15.38;;;;;;;;;;5014294;28;20038;-65
2023/01/20 07:09:55;;;;;;;29.90;16.90;;;;;;;;;;4980379;28;20057;-65
2023/01/20 07:12:22;;;;;;;29.40;16.90;;;;;;;;;;4996544;28;20496;-65
2023/01/20 07:14:49;;;;;;;25.77;15.70;;;;;;;;;;4980456;28;20093;-65
2023/01/20 07:17:15;;;;;;;31.73;18.83;;;;;;;;;;5014044;28;20034;-65
2023/01/20 07:19:41;;;;;;;25.13;16.08;;;;;;;;;;5014129;28;20018;-65
2023/01/20 07:22:06;;;;;;;42.38;28.52;;;;;;;;;;4996586;28;20036;-65
2023/01/20 07:24:32;;;;;;;92.28;57.35;;;;;;;;;;4996736;28;20022;-65
2023/01/20 07:26:58;;;;;;;72.38;44.30;;;;;;;;;;5013838;28;20488;-65
2023/01/20 07:29:25;;;;;;;56.35;39.10;;;;;;;;;;5013724;28;20041;-65
2023/01/20 07:31:50;;;;;;;55.40;34.83;;;;;;;;;;5013860;28;20038;-65
2023/01/20 07:34:15;;;;;;;44.03;28.42;;;;;;;;;;5013933;28;20114;-65
2023/01/20 07:36:42;;;;;;;28.08;18.80;;;;;;;;;;5013874;28;20030;-65
2023/01/20 07:39:11;;;;;;;33.05;23.25;;;;;;;;;;4996170;28;20501;-65
2023/01/20 07:41:37;;;;;;;30.85;20.67;;;;;;;;;;4980009;28;20061;-65
2023/01/20 07:44:04;;;;;;;24.13;16.60;;;;;;;;;;5013736;28;20061;-65
2023/01/20 07:46:29;;;;;;;22.70;16.27;;;;;;;;;;4996272;28;20062;-64
2023/01/20 07:48:55;;;;;;;24.55;16.70;;;;;;;;;;4996135;28;20029;-64
2023/01/20 07:51:22;;;;;;;23.17;14.98;;;;;;;;;;4996457;28;20022;-65
2023/01/20 07:53:50;;;;;;;20.83;13.98;;;;;;;;;;5013817;28;20033;-65
2023/01/20 07:56:20;;;;;;;26.30;16.20;;;;;;;;;;4996502;28;20030;-65
2023/01/20 07:58:48;;;;;;;68.22;31.75;;;;;;;;;;5013558;28;20385;-64
2023/01/20 08:01:33;;;;;;;37.75;25.10;;;;;;;;;;4979796;28;20025;-65
2023/01/20 08:03:59;;;;;;;29.40;20.40;;;;;;;;;;5013099;28;20092;-64
2023/01/20 08:06:26;;;;;;;34.42;18.80;;;;;;;;;;5013550;28;20105;-64
2023/01/20 08:08:51;;;;;;;67.85;23.85;;;;;;;;;;5013524;28;20148;-64
2023/01/20 08:11:17;;;;;;;68.97;26.90;;;;;;;;;;4999342;28;20041;-64
2023/01/20 08:13:43;;;;;;;338.83;105.43;;;;;;;;;;5017479;28;20034;-64
2023/01/20 08:16:10;;;;;;;894.50;348.73;;;;;;;;;;5017228;28;20041;-65
2023/01/20 08:18:36;;;;;;;50.22;26.25;;;;;;;;;;4999750;28;20405;-64
2023/01/20 08:21:06;;;;;;;40.55;20.30;;;;;;;;;;4999642;28;20037;-64
2023/01/20 08:23:35;;;;;;;46.67;21.33;;;;;;;;;;4999640;28;20029;-64
2023/01/20 08:26:01;;;;;;;56.10;25.98;;;;;;;;;;4999596;28;20031;-64
2023/01/20 08:28:28;;;;;;;56.15;24.63;;;;;;;;;;5017010;28;20474;-65
2023/01/20 08:31:01;;;;;;;25.25;14.43;;;;;;;;;;5017179;28;20096;-64
2023/01/20 08:33:26;;;;;;;22.02;14.25;;;;;;;;;;5017160;28;20547;-64
2023/01/20 08:35:51;;;;;;;23.35;15.13;;;;;;;;;;5017061;28;20022;-64
2023/01/20 08:38:17;;;;;;;22.10;14.68;;;;;;;;;;5017035;28;20137;-64
2023/01/20 08:40:43;;;;;;;24.63;14.85;;;;;;;;;;5017247;28;20030;-64
2023/01/20 08:43:08;;;;;;;24.63;14.70;;;;;;;;;;4999522;28;20040;-64
2023/01/20 08:45:34;;;;;;;25.45;14.90;;;;;;;;;;5017146;28;20052;-64
2023/01/20 08:48:00;;;;;;;20.95;14.88;;;;;;;;;;5016868;28;20117;-64
2023/01/20 08:50:25;;;;;;;24.08;15.63;;;;;;;;;;5016783;28;20030;-64
2023/01/20 08:52:50;;;;;;;21.40;14.07;;;;;;;;;;5016808;28;20030;-64
2023/01/20 08:55:16;;;;;;;20.40;13.55;;;;;;;;;;4999193;28;20037;-64
2023/01/20 08:57:41;;;;;;;23.75;15.50;;;;;;;;;;5016665;28;20026;-64
2023/01/20 09:00:08;;;;;;;22.08;14.55;;;;;;;;;;5016635;28;20030;-64
2023/01/20 09:02:33;;;;;;;23.50;15.75;;;;;;;;;;5016624;28;20034;-64
2023/01/20 09:04:58;;;;;;;23.38;16.00;;;;;;;;;;4999014;28;20033;-64
2023/01/20 09:07:24;;;;;;;30.20;19.27;;;;;;;;;;5016484;28;20034;-64
2023/01/20 09:09:50;;;;;;;95.85;49.13;;;;;;;;;;5016477;28;20069;-64
2023/01/20 09:12:15;;;;;;;180.75;140.82;;;;;;;;;;4998982;28;20025;-66
2023/01/20 09:14:40;;;;;;;302.05;172.20;;;;;;;;;;5016294;28;20080;-66
2023/01/20 09:17:06;;;;;;;83.05;45.33;;;;;;;;;;5016284;28;20397;-66
2023/01/20 09:19:31;;;;;;;98.60;46.78;;;;;;;;;;5016234;28;20484;-66
2023/01/20 09:21:57;;;;;;;733.65;340.25;;;;;;;;;;4997835;28;20061;-66
2023/01/20 09:24:22;;;;;;;1999.90;790.10;;;;;;;;;;4998552;28;20386;-66
2023/01/20 09:26:48;;;;;;;326.48;131.10;;;;;;;;;;4998615;28;20026;-64
2023/01/20 09:29:14;;;;;;;271.02;102.45;;;;;;;;;;4994993;28;20046;-64
2023/01/20 09:31:43;;;;;;;160.75;62.92;;;;;;;;;;4996576;28;20470;-66
2023/01/20 09:34:09;;;;;;;1361.32;518.40;;;;;;;;;;4995178;28;20597;-66
2023/01/20 09:36:35;;;;;;;1291.05;479.13;;;;;;;;;;4995166;28;20069;-66
2023/01/20 09:44:54;;;;;;;54.65;23.67;;;;;;;;;;4996175;28;20038;-66
2023/01/20 09:47:22;;;;;;;1554.30;534.15;;;;;;;;;;4996127;28;20121;-66
2023/01/20 09:55:39;;;;;;;874.30;350.42;;;;;;;;;;4996087;28;20046;-65
2023/01/20 09:58:21;;;;;;;654.00;278.33;;;;;;;;;;4996021;28;20085;-64
2023/01/20 10:00:49;;;;;;;145.93;60.83;;;;;;;;;;4994777;28;20035;-64
2023/01/20 10:03:26;;;;;;;1203.90;589.38;;;;;;;;;;4995775;28;20035;-64
2023/01/20 10:05:53;;;;;;;1016.35;530.53;;;;;;;;;;4995941;28;20022;-64
2023/01/20 10:08:19;;;;;;;744.50;414.95;;;;;;;;;;4994560;28;20441;-64
2023/01/20 10:10:50;;;;;;;750.47;406.88;;;;;;;;;;4994413;28;20129;-64
2023/01/20 10:13:18;;;;;;;421.35;225.60;;;;;;;;;;4995712;28;20053;-64
2023/01/20 10:15:49;;;;;;;125.82;74.75;;;;;;;;;;4995612;28;20029;-64
2023/01/20 10:18:34;;;;;;;35.50;24.88;;;;;;;;;;4995583;28;20053;-64
2023/01/20 10:21:23;;;;;;;416.85;271.30;;;;;;;;;;4995102;28;20125;-64
2023/01/20 10:23:52;;;;;;;482.00;297.50;;;;;;;;;;4986263;28;20038;-64
2023/01/20 10:26:25;;;;;;;83.50;54.17;;;;;;;;;;4994482;28;20085;-64
2023/01/20 10:28:58;;;;;;;82.57;54.28;;;;;;;;;;4998865;28;20048;-65
2023/01/20 10:31:27;;;;;;;105.80;66.18;;;;;;;;;;5015026;28;20045;-64
2023/01/20 10:34:07;;;;;;;152.07;91.28;;;;;;;;;;4997411;28;20045;-64
2023/01/20 10:36:33;;;;;;;21.52;18.17;;;;;;;;;;5014849;28;20092;-64
2023/01/20 10:39:04;;;;;;;51.80;39.78;;;;;;;;;;5014673;28;20096;-64
2023/01/20 10:41:29;;;;;;;26.80;19.88;;;;;;;;;;5014753;28;20065;-64
2023/01/20 10:43:55;;;;;;;31.08;22.90;;;;;;;;;;5014734;28;20462;-64
2023/01/20 10:46:20;;;;;;;34.33;26.40;;;;;;;;;;4997220;28;20034;-64
2023/01/20 10:48:46;;;;;;;33.30;24.80;;;;;;;;;;4997022;28;20041;-64
2023/01/20 10:51:33;;;;;;;136.48;106.10;;;;;;;;;;5014538;28;20038;-64
2023/01/20 10:54:09;;;;;;;33.30;21.98;;;;;;;;;;5014569;28;20429;-64
2023/01/20 10:56:36;;;;;;;27.65;20.45;;;;;;;;;;5014595;28;20394;-64
2023/01/20 10:59:06;;;;;;;30.00;22.77;;;;;;;;;;5014391;28;20030;-64
2023/01/20 11:01:32;;;;;;;57.60;39.28;;;;;;;;;;5014425;28;20034;-64
2023/01/20 11:03:57;;;;;;;56.90;33.58;;;;;;;;;;4996907;28;20013;-64
2023/01/20 11:06:26;;;;;;;29.60;20.65;;;;;;;;;;5014536;28;20462;-64
2023/01/20 11:08:52;;;;;;;25.02;18.20;;;;;;;;;;4996660;28;20034;-64
2023/01/20 11:11:21;;;;;;;26.55;19.63;;;;;;;;;;5014339;28;20034;-66
2023/01/20 11:13:47;;;;;;;45.00;30.88;;;;;;;;;;4996692;28;20060;-66
2023/01/20 11:16:17;;;;;;;40.13;26.35;;;;;;;;;;5014196;28;20046;-66
2023/01/20 11:18:52;;;;;;;27.23;19.42;;;;;;;;;;5014122;28;20699;-66
2023/01/20 11:21:21;;;;;;;37.92;27.40;;;;;;;;;;5014052;28;20026;-66
2023/01/20 11:23:48;;;;;;;34.92;23.23;;;;;;;;;;5014069;28;20461;-66
2023/01/20 11:26:19;;;;;;;21.40;15.93;;;;;;;;;;5014131;28;20049;-66
2023/01/20 11:28:52;;;;;;;22.08;15.02;;;;;;;;;;5013633;28;20053;-66
2023/01/20 11:31:18;;;;;;;24.85;19.48;;;;;;;;;;5013707;28;20079;-66
2023/01/20 11:33:59;;;;;;;26.40;20.88;;;;;;;;;;5013967;28;20030;-66
2023/01/20 11:36:25;;;;;;;33.80;25.45;;;;;;;;;;4996542;28;20060;-67
2023/01/20 11:38:51;;;;;;;23.85;17.10;;;;;;;;;;5013797;28;20026;-66
2023/01/20 11:41:27;;;;;;;24.00;16.45;;;;;;;;;;5013764;28;20036;-67
2023/01/20 11:43:59;;;;;;;26.00;20.30;;;;;;;;;;5013996;28;20018;-64
2023/01/20 11:46:31;;;;;;;20.67;15.60;;;;;;;;;;5013577;28;20030;-64
2023/01/20 11:49:13;;;;;;;34.47;25.50;;;;;;;;;;5013863;28;20042;-64
2023/01/20 11:51:47;;;;;;;34.13;23.98;;;;;;;;;;5013739;28;20036;-64
2023/01/20 11:54:14;;;;;;;26.63;19.77;;;;;;;;;;5034860;23;20057;-66
2023/01/20 11:56:42;;;;;;;33.65;27.08;;;;;;;;;;5032272;28;20018;-66
2023/01/20 11:59:37;;;;;;;56.83;40.92;;;;;;;;;;5032112;28;20378;-66
2023/01/20 12:02:03;;;;;;;44.17;30.38;;;;;;;;;;5024754;28;20088;-66
2023/01/20 12:04:45;;;;;;;42.05;23.58;;;;;;;;;;5033923;28;20029;-67
2023/01/20 12:07:13;;;;;;;28.38;20.05;;;;;;;;;;5033448;28;20037;-66
2023/01/20 12:09:43;;;;;;;69.78;39.42;;;;;;;;;;5032125;28;20061;-66
2023/01/20 12:12:16;;;;;;;32.33;22.40;;;;;;;;;;5048911;28;20511;-66
2023/01/20 12:14:51;;;;;;;35.50;22.35;;;;;;;;;;5033376;28;20034;-66
2023/01/20 12:17:22;;;;;;;49.22;27.70;;;;;;;;;;5033186;28;20120;-66
2023/01/20 12:20:07;;;;;;;73.57;42.92;;;;;;;;;;5033239;28;20030;-66
2023/01/20 12:22:56;;;;;;;54.08;36.88;;;;;;;;;;5048951;28;20026;-66
2023/01/20 12:25:26;;;;;;;42.42;26.40;;;;;;;;;;5013935;28;20049;-66
2023/01/20 12:28:03;;;;;;;28.75;18.90;;;;;;;;;;5033224;28;20116;-66
2023/01/20 12:30:40;;;;;;;48.63;29.23;;;;;;;;;;5031853;28;20036;-66
2023/01/20 12:33:19;;;;;;;104.05;57.65;;;;;;;;;;5031894;28;20041;-66
2023/01/20 12:35:59;;;;;;;103.00;49.63;;;;;;;;;;5033205;28;20029;-66
2023/01/20 12:38:25;;;;;;;60.85;38.42;;;;;;;;;;5033030;28;20429;-66
2023/01/20 12:40:51;;;;;;;83.40;58.92;;;;;;;;;;5033095;28;20079;-66
2023/01/20 12:43:16;;;;;;;87.55;59.90;;;;;;;;;;5048821;28;20021;-66
2023/01/20 12:45:47;;;;;;;54.17;35.90;;;;;;;;;;5033002;28;20044;-66
2023/01/20 12:48:34;;;;;;;40.15;26.10;;;;;;;;;;5032986;28;20029;-67
2023/01/20 12:51:17;;;;;;;30.15;19.77;;;;;;;;;;5048587;28;20060;-67
2023/01/20 12:54:01;;;;;;;30.05;20.38;;;;;;;;;;5042419;28;20056;-67
2023/01/20 12:56:32;;;;;;;33.92;20.13;;;;;;;;;;5035444;28;20040;-67
2023/01/20 12:59:01;;;;;;;28.73;19.60;;;;;;;;;;5056459;28;20369;-66
2023/01/20 13:01:43;;;;;;;28.60;21.52;;;;;;;;;;5056551;28;20408;-66
2023/01/20 13:04:09;;;;;;;31.10;20.02;;;;;;;;;;5056439;28;20033;-67
2023/01/20 13:06:54;;;;;;;27.55;19.98;;;;;;;;;;5038635;28;20488;-66
2023/01/20 13:09:35;;;;;;;25.95;18.23;;;;;;;;;;5015476;28;20041;-66
2023/01/20 13:12:00;;;;;;;;;;;;;;;;;;5038745;28;20495;-67
2023/01/20 13:14:39;;;;;;;32.13;20.93;;;;;;;;;;5056197;28;19995;-67
2023/01/20 13:17:24;;;;;;;41.55;27.20;;;;;;;;;;5056198;28;20029;-66
2023/01/20 13:19:55;;;;;;;29.77;20.67;;;;;;;;;;5056002;28;20029;-66
2023/01/20 13:22:21;;;;;;;29.70;21.10;;;;;;;;;;5056236;28;20028;-66
2023/01/20 13:24:51;;;;;;;29.60;21.88;;;;;;;;;;5056062;28;20117;-66
2023/01/20 13:27:19;;;;;;;32.22;23.05;;;;;;;;;;5038042;28;20052;-66
2023/01/20 13:29:48;;;;;;;40.70;26.88;;;;;;;;;;5055905;28;20040;-66
2023/01/20 13:32:32;;;;;;;79.43;51.75;;;;;;;;;;5055931;28;20464;-66
2023/01/20 13:34:58;;;;;;;44.42;31.55;;;;;;;;;;5055840;28;20047;-66
2023/01/20 13:37:32;;;;;;;31.05;20.70;;;;;;;;;;5037870;28;20029;-67
2023/01/20 13:39:59;;;;;;;34.85;23.38;;;;;;;;;;5037813;28;20071;-66
2023/01/20 13:42:33;;;;;;;31.60;21.30;;;;;;;;;;5055627;28;20534;-66
2023/01/20 13:45:10;;;;;;;32.10;22.05;;;;;;;;;;5055719;28;20417;-66
2023/01/20 13:47:51;;;;;;;45.10;29.75;;;;;;;;;;5055719;28;20075;-66
2023/01/20 13:50:36;;;;;;;36.55;24.75;;;;;;;;;;5055690;28;20025;-66
2023/01/20 13:53:19;;;;;;;33.42;22.50;;;;;;;;;;5037649;28;20083;-66
2023/01/20 13:55:45;;;;;;;108.82;55.72;;;;;;;;;;5055420;28;20044;-66
2023/01/20 13:58:30;;;;;;;47.28;31.50;;;;;;;;;;5037553;28;20055;-66
2023/01/20 14:01:02;;;;;;;39.65;23.17;;;;;;;;;;5055346;28;20025;-64
2023/01/20 14:03:29;;;;;;;55.72;35.05;;;;;;;;;;5055306;28;20025;-64
2023/01/20 14:06:01;;;;;;;84.10;39.72;;;;;;;;;;5055445;28;20052;-66
2023/01/20 14:08:47;;;;;;;247.02;96.30;;;;;;;;;;5053551;28;20025;-66
2023/01/20 14:11:13;;;;;;;80.47;39.67;;;;;;;;;;5053808;28;20039;-64
2023/01/20 14:13:40;;;;;;;49.05;28.48;;;;;;;;;;5045866;22;20065;-66
2023/01/20 14:16:05;;;;;;;137.18;64.70;;;;;;;;;;5035211;28;20025;-66
2023/01/20 14:18:31;;;;;;;78.30;43.00;;;;;;;;;;5035549;28;20048;-66
2023/01/20 14:20:57;;;;;;;50.78;33.25;;;;;;;;;;5017400;28;20041;-66
2023/01/20 14:23:54;;;;;;;43.13;28.73;;;;;;;;;;5044529;22;20070;-66
2023/01/20 14:26:20;;;;;;;45.20;33.00;;;;;;;;;;5036203;22;20053;-66
2023/01/20 14:28:49;;;;;;;36.25;25.50;;;;;;;;;;5034880;28;20507;-66
2023/01/20 14:31:15;;;;;;;79.47;47.42;;;;;;;;;;5034877;28;20065;-64
2023/01/20 14:33:44;;;;;;;41.95;29.25;;;;;;;;;;5050152;28;20060;-64
2023/01/20 14:36:13;;;;;;;38.20;23.60;;;;;;;;;;5017335;28;20057;-64
2023/01/20 14:38:39;;;;;;;49.40;30.17;;;;;;;;;;5034465;28;20065;-61